Sheridan, WY

5:47 AM MDT on July 07, 2015 (GMT -0600)
North Airport Area | | Change Station
CLOSE
Current Station
Personal Weather Station
Location: Sheridan, WY
Elevation: 3917 ft
Nearby Weather Stations

Elev 3917 ft 44.78 °N, 106.97 °W | Updated 9 minutes ago

Scattered Clouds
Scattered Clouds
47.3 °F
Feels Like 47 °F
N
0.0
Wind Variable Wind from WNW

Today
High -- | Low -- °F
--% Chance of Precip.
Yesterday
High -- | Low -- °F
Precip. -- in
5:29 AM 8:55 PM
Waning Gibbous, 65% visible
Pressure 30.06 in
Visibility 4.0 miles
Clouds Scattered Clouds 400 ft
Windchill 47 °F
Dew Point 47 °F
Humidity 98%
Rainfall 0.00 in
Snow Depth Not available.
UV 0 out of 12
Pollen 4.90 out of 12
Air Quality Not available.
Flu Activity Not available.
METAR KSHR 071053Z AUTO 21004KT 4SM BR SCT004 09/08 A3010 RMK AO2 SLP178 T00890078 $

More Conditions Fewer Conditions

Pressure 30.06 in
Visibility 4.0 miles
Clouds Scattered Clouds 400 ft
Windchill 47 °F
Dew Point 47 °F
Humidity 98%
Rainfall 0.00 in
Snow Depth Not available.
UV 0 out of 12
Pollen 4.90 out of 12
Air Quality Not available.
Flu Activity Not available.
METAR KSHR 071053Z AUTO 21004KT 4SM BR SCT004 09/08 A3010 RMK AO2 SLP178 T00890078 $

More Conditions Fewer Conditions

10-Day Weather Forecast

×

Almanac

Astronomy

Jul. 07, 2015 Rise Set
Actual Time
Civil Twilight
Nautical Twilight
Astronomical Twilight
Moon
Length of Visible Light
Length of Day
Tomorrow will be .
, % of the Moon is Illuminated

Today's Extremes

State Highs State Lows

Community

WunderPhotos

Upload Photos

1,835,770 photos uploaded!

WunderBlogs® & News

Nearby

Air Quality

  Air Quality AQ Index Pollutant
Not available.

Snow Depth

Station Depth Elevation

Earthquake Activity

City Distance Mag. Time & Date
Minimum magnitude displayed is 2.5.

Coastal Water Temperatures

Place Temperature

Stations

Nearby Weather Stations

Station Location Temp. Windchill Dew Point Humidity Wind Precip. Elev Updated Type